Airfield :







YOU CAN JOIN US ON...

 
LOGIN :

Register | Disclaimer

   EN    FR    IT 

 









Legend :    VFR   Marginal VFR   IFR   Intensive IFR   Very Intensive IFR
Visi :
Ceiling :
>= 8 km
>= 3000ft
5 to 8 km
1000 to 3000 ft
1500m to 5 km
500 to 1000 ft
800 to 1500m
200 to 500 ft
< 800m
< 200 ft
Symbols :   Thunderstorms  Fog  Heavy snow  Heavy precipitations  Wind > 20 kt






- Airport Elevation : 1166 ft


KMPV - Edward F Knapp State

CURRENT METAR :
  • 120451Z AUTO 28008KT 250V330 10SM SCT050 SCT060 M07/M15 A3034 RMK AO2 SNE0356 SLP295 P0000 T10721150 410221078

EXPIRED METARs :
  • 120351Z AUTO 29007G20KT 240V310 6SM -SN FEW027 BKN032 OVC055 M06/M11 A3029 RMK AO2 SNB26 SLP279 P0000 T10611111
  • 120251Z AUTO VRB04G14KT 10SM SCT037 BKN075 OVC095 M06/M11 A3025 RMK AO2 SNE23 SLP265 P0000 60000 T10561106 53035
  • 120235Z AUTO 29009G17KT 10SM SCT045 OVC075 M06/M10 A3024 RMK AO2 SNE23 P0000 T10561100

TAF KMPV
Valid from the 12 at 06:00 until the 13 at 06:00 UTC


120530Z 1206/1306 29014G26KT P6SM SCT120
FM120900 29011KT P6SM SKC
FM121900 26005KT P6SM FEW150
FM130000 17006KT P6SM BKN100



MET'MAP, your aeronautical weather chart ! - Copyright ORBIFLY December 2007 - Disclaimer

ORBIFLY MET'MAP TEAM :

Programming & Development : Alexandra Zaïnal
Concept & original design : Baudouin d'Aumeries
Assistance for programming : Marc-Olivier Méhu
Technical & hardware support : Manuel Goepfert

Contact : metmap@orbifly.com




SOURCES & CREDITS :

   NOAA